sensor_id;sensor_type;location;lat;lon;timestamp;pressure;altitude;pressure_sealevel;temperature;humidity
50384;BME280;36301;48.310;12.786;2022-11-12T04:02:38;97791.53;;;-0.12;100.00
50384;BME280;36301;48.310;12.786;2022-11-12T04:05:05;97795.19;;;-0.13;100.00
50384;BME280;36301;48.310;12.786;2022-11-12T04:08:11;97789.16;;;-0.19;100.00
50384;BME280;36301;48.310;12.786;2022-11-12T04:10:57;97791.75;;;-0.19;100.00
50384;BME280;36301;48.310;12.786;2022-11-12T04:13:24;97790.72;;;-0.18;100.00
50384;BME280;36301;48.310;12.786;2022-11-12T04:19:07;97787.84;;;-0.21;100.00
50384;BME280;36301;48.310;12.786;2022-11-12T04:21:59;97793.03;;;-0.21;100.00
50384;BME280;36301;48.310;12.786;2022-11-12T04:24:32;97787.03;;;-0.22;100.00
50384;BME280;36301;48.310;12.786;2022-11-12T04:27:28;97782.63;;;-0.21;100.00
50384;BME280;36301;48.310;12.786;2022-11-12T04:29:55;97787.56;;;-0.25;100.00
50384;BME280;36301;48.310;12.786;2022-11-12T04:32:52;97791.19;;;-0.26;100.00
50384;BME280;36301;48.310;12.786;2022-11-12T04:35:26;97784.97;;;-0.25;100.00
50384;BME280;36301;48.310;12.786;2022-11-12T04:37:53;97782.84;;;-0.28;100.00
50384;BME280;36301;48.310;12.786;2022-11-12T04:40:22;97781.50;;;-0.31;100.00
50384;BME280;36301;48.310;12.786;2022-11-12T04:43:10;97777.34;;;-0.32;100.00
50384;BME280;36301;48.310;12.786;2022-11-12T04:45:56;97762.72;;;-0.43;100.00
50384;BME280;36301;48.310;12.786;2022-11-12T04:48:24;97763.53;;;-0.37;100.00
50384;BME280;36301;48.310;12.786;2022-11-12T04:50:57;97769.00;;;-0.39;100.00
50384;BME280;36301;48.310;12.786;2022-11-12T04:53:24;97771.59;;;-0.39;100.00
50384;BME280;36301;48.310;12.786;2022-11-12T04:55:52;97774.44;;;-0.40;100.00
50384;BME280;36301;48.310;12.786;2022-11-12T04:58:20;97783.56;;;-0.38;100.00
50384;BME280;36301;48.310;12.786;2022-11-12T05:00:48;97788.47;;;-0.41;100.00
50384;BME280;36301;48.310;12.786;2022-11-12T05:03:15;97777.50;;;-0.48;100.00
50384;BME280;36301;48.310;12.786;2022-11-12T05:05:42;97781.41;;;-0.46;100.00
50384;BME280;36301;48.310;12.786;2022-11-12T05:08:08;97766.00;;;-0.58;100.00
50384;BME280;36301;48.310;12.786;2022-11-12T05:10:35;97781.72;;;-0.42;100.00
50384;BME280;36301;48.310;12.786;2022-11-12T05:13:01;97761.59;;;-0.52;100.00
50384;BME280;36301;48.310;12.786;2022-11-12T05:15:28;97772.03;;;-0.47;100.00
50384;BME280;36301;48.310;12.786;2022-11-12T05:17:55;97776.72;;;-0.49;100.00
50384;BME280;36301;48.310;12.786;2022-11-12T05:20:21;97780.31;;;-0.55;100.00
50384;BME280;36301;48.310;12.786;2022-11-12T05:22:48;97780.81;;;-0.58;100.00
50384;BME280;36301;48.310;12.786;2022-11-12T05:25:32;97767.00;;;-0.64;100.00
50384;BME280;36301;48.310;12.786;2022-11-12T05:27:58;97785.19;;;-0.64;100.00
50384;BME280;36301;48.310;12.786;2022-11-12T05:30:25;97778.63;;;-0.71;100.00
50384;BME280;36301;48.310;12.786;2022-11-12T05:32:51;97766.13;;;-0.74;100.00
50384;BME280;36301;48.310;12.786;2022-11-12T05:35:18;97785.97;;;-0.63;100.00
50384;BME280;36301;48.310;12.786;2022-11-12T05:37:44;97788.78;;;-0.70;100.00
50384;BME280;36301;48.310;12.786;2022-11-12T05:40:11;97795.81;;;-0.70;100.00
50384;BME280;36301;48.310;12.786;2022-11-12T05:42:38;97796.81;;;-0.71;100.00
50384;BME280;36301;48.310;12.786;2022-11-12T05:45:05;97787.19;;;-0.76;100.00
50384;BME280;36301;48.310;12.786;2022-11-12T05:47:31;97795.50;;;-0.74;100.00
50384;BME280;36301;48.310;12.786;2022-11-12T05:49:58;97797.06;;;-0.73;100.00
50384;BME280;36301;48.310;12.786;2022-11-12T05:52:24;97790.31;;;-0.74;100.00
50384;BME280;36301;48.310;12.786;2022-11-12T05:54:51;97783.72;;;-0.82;100.00
50384;BME280;36301;48.310;12.786;2022-11-12T05:57:17;97801.75;;;-0.75;100.00
50384;BME280;36301;48.310;12.786;2022-11-12T05:59:44;97795.22;;;-0.77;100.00
50384;BME280;36301;48.310;12.786;2022-11-12T06:02:10;97803.31;;;-0.74;100.00
50384;BME280;36301;48.310;12.786;2022-11-12T06:04:37;97801.50;;;-0.73;100.00
50384;BME280;36301;48.310;12.786;2022-11-12T06:07:03;97801.19;;;-0.77;100.00
50384;BME280;36301;48.310;12.786;2022-11-12T06:09:30;97793.56;;;-0.89;100.00
50384;BME280;36301;48.310;12.786;2022-11-12T06:11:56;97813.16;;;-0.81;100.00
50384;BME280;36301;48.310;12.786;2022-11-12T06:14:23;97815.22;;;-0.78;100.00
50384;BME280;36301;48.310;12.786;2022-11-12T06:16:49;97815.59;;;-0.69;100.00
50384;BME280;36301;48.310;12.786;2022-11-12T06:19:15;97818.97;;;-0.69;100.00
50384;BME280;36301;48.310;12.786;2022-11-12T06:21:42;97813.19;;;-0.76;100.00
50384;BME280;36301;48.310;12.786;2022-11-12T06:24:09;97825.50;;;-0.61;100.00
50384;BME280;36301;48.310;12.786;2022-11-12T06:26:35;97812.03;;;-0.58;100.00
50384;BME280;36301;48.310;12.786;2022-11-12T06:29:03;97807.88;;;-0.59;100.00
50384;BME280;36301;48.310;12.786;2022-11-12T06:31:29;97823.28;;;-0.47;100.00
50384;BME280;36301;48.310;12.786;2022-11-12T06:33:56;97823.84;;;-0.45;100.00
50384;BME280;36301;48.310;12.786;2022-11-12T06:36:22;97821.56;;;-0.37;100.00
50384;BME280;36301;48.310;12.786;2022-11-12T06:38:49;97821.56;;;-0.37;100.00
50384;BME280;36301;48.310;12.786;2022-11-12T06:41:16;97830.19;;;-0.31;100.00
50384;BME280;36301;48.310;12.786;2022-11-12T06:43:42;97826.31;;;-0.29;100.00
50384;BME280;36301;48.310;12.786;2022-11-12T06:46:14;97825.22;;;-0.33;100.00
50384;BME280;36301;48.310;12.786;2022-11-12T06:48:41;97825.53;;;-0.29;100.00
50384;BME280;36301;48.310;12.786;2022-11-12T06:51:11;97827.69;;;-0.16;100.00
50384;BME280;36301;48.310;12.786;2022-11-12T06:53:40;97822.28;;;-0.09;100.00
50384;BME280;36301;48.310;12.786;2022-11-12T06:56:07;97824.47;;;0.09;100.00
50384;BME280;36301;48.310;12.786;2022-11-12T06:58:34;97824.50;;;0.14;100.00
50384;BME280;36301;48.310;12.786;2022-11-12T07:01:14;97828.78;;;0.31;100.00
50384;BME280;36301;48.310;12.786;2022-11-12T07:03:42;97823.34;;;0.42;100.00
50384;BME280;36301;48.310;12.786;2022-11-12T07:06:12;97827.28;;;0.55;100.00
50384;BME280;36301;48.310;12.786;2022-11-12T07:08:40;97822.91;;;0.71;100.00
50384;BME280;36301;48.310;12.786;2022-11-12T07:11:07;97837.84;;;0.96;100.00
50384;BME280;36301;48.310;12.786;2022-11-12T07:13:35;97833.72;;;1.15;100.00
50384;BME280;36301;48.310;12.786;2022-11-12T07:16:03;97829.06;;;1.27;100.00
50384;BME280;36301;48.310;12.786;2022-11-12T07:18:32;97833.00;;;1.61;100.00
50384;BME280;36301;48.310;12.786;2022-11-12T07:21:00;97833.50;;;2.03;100.00
50384;BME280;36301;48.310;12.786;2022-11-12T07:23:29;97841.84;;;2.05;100.00
50384;BME280;36301;48.310;12.786;2022-11-12T07:26:04;97841.34;;;1.88;100.00
50384;BME280;36301;48.310;12.786;2022-11-12T07:28:31;97837.16;;;1.62;100.00
50384;BME280;36301;48.310;12.786;2022-11-12T07:31:02;97846.56;;;1.42;100.00
50384;BME280;36301;48.310;12.786;2022-11-12T07:33:29;97847.34;;;1.33;100.00
50384;BME280;36301;48.310;12.786;2022-11-12T07:36:07;97839.47;;;1.12;100.00
50384;BME280;36301;48.310;12.786;2022-11-12T07:38:36;97834.78;;;1.19;100.00
50384;BME280;36301;48.310;12.786;2022-11-12T07:41:04;97840.31;;;1.43;100.00
50384;BME280;36301;48.310;12.786;2022-11-12T07:43:32;97836.63;;;1.39;100.00
50384;BME280;36301;48.310;12.786;2022-11-12T07:46:01;97850.72;;;1.33;100.00
50384;BME280;36301;48.310;12.786;2022-11-12T07:48:36;97846.78;;;1.15;100.00
50384;BME280;36301;48.310;12.786;2022-11-12T07:53:31;97845.53;;;1.48;100.00
50384;BME280;36301;48.310;12.786;2022-11-12T07:55:59;97839.25;;;1.44;100.00
50384;BME280;36301;48.310;12.786;2022-11-12T07:58:29;97846.03;;;1.76;100.00
50384;BME280;36301;48.310;12.786;2022-11-12T08:00:56;97859.09;;;1.96;100.00
50384;BME280;36301;48.310;12.786;2022-11-12T08:03:23;97857.53;;;2.00;100.00
50384;BME280;36301;48.310;12.786;2022-11-12T08:05:50;97863.78;;;2.10;100.00
50384;BME280;36301;48.310;12.786;2022-11-12T08:08:16;97862.25;;;1.98;100.00
50384;BME280;36301;48.310;12.786;2022-11-12T08:10:43;97863.22;;;2.23;100.00
50384;BME280;36301;48.310;12.786;2022-11-12T08:13:09;97866.66;;;2.23;100.00
50384;BME280;36301;48.310;12.786;2022-11-12T08:15:36;97866.91;;;2.01;100.00
50384;BME280;36301;48.310;12.786;2022-11-12T08:18:02;97869.28;;;2.18;100.00
50384;BME280;36301;48.310;12.786;2022-11-12T08:20:29;97874.47;;;2.33;100.00
50384;BME280;36301;48.310;12.786;2022-11-12T08:22:58;97876.47;;;2.57;100.00
50384;BME280;36301;48.310;12.786;2022-11-12T08:25:25;97879.31;;;2.71;100.00
50384;BME280;36301;48.310;12.786;2022-11-12T08:27:56;97887.69;;;2.68;100.00
50384;BME280;36301;48.310;12.786;2022-11-12T08:30:25;97883.72;;;2.85;100.00
50384;BME280;36301;48.310;12.786;2022-11-12T08:33:00;97893.59;;;2.94;100.00
50384;BME280;36301;48.310;12.786;2022-11-12T08:35:28;97877.19;;;2.78;100.00
50384;BME280;36301;48.310;12.786;2022-11-12T08:37:58;97889.41;;;2.93;100.00
50384;BME280;36301;48.310;12.786;2022-11-12T08:40:26;97895.69;;;2.97;100.00
50384;BME280;36301;48.310;12.786;2022-11-12T08:43:00;97889.19;;;2.94;100.00
50384;BME280;36301;48.310;12.786;2022-11-12T08:45:28;97894.88;;;3.01;100.00
50384;BME280;36301;48.310;12.786;2022-11-12T08:47:59;97892.00;;;3.03;100.00
50384;BME280;36301;48.310;12.786;2022-11-12T08:50:26;97904.63;;;2.91;100.00
50384;BME280;36301;48.310;12.786;2022-11-12T08:53:07;97890.22;;;2.93;100.00
50384;BME280;36301;48.310;12.786;2022-11-12T08:55:34;97889.91;;;3.05;100.00
50384;BME280;36301;48.310;12.786;2022-11-12T08:58:01;97888.03;;;3.16;100.00
50384;BME280;36301;48.310;12.786;2022-11-12T09:00:36;97874.31;;;3.29;100.00
50384;BME280;36301;48.310;12.786;2022-11-12T09:03:04;97889.44;;;3.42;100.00
50384;BME280;36301;48.310;12.786;2022-11-12T09:05:33;97888.31;;;3.53;100.00
50384;BME280;36301;48.310;12.786;2022-11-12T09:08:03;97889.84;;;3.59;100.00
50384;BME280;36301;48.310;12.786;2022-11-12T09:10:30;97897.13;;;3.68;100.00
50384;BME280;36301;48.310;12.786;2022-11-12T09:12:57;97899.66;;;3.78;100.00
50384;BME280;36301;48.310;12.786;2022-11-12T09:15:25;97898.22;;;3.61;100.00
50384;BME280;36301;48.310;12.786;2022-11-12T09:18:11;97892.56;;;3.83;100.00
50384;BME280;36301;48.310;12.786;2022-11-12T09:20:39;97887.22;;;3.94;100.00
50384;BME280;36301;48.310;12.786;2022-11-12T09:23:11;97896.28;;;3.77;100.00
50384;BME280;36301;48.310;12.786;2022-11-12T09:25:39;97891.56;;;3.74;100.00
50384;BME280;36301;48.310;12.786;2022-11-12T09:28:15;97892.75;;;3.92;100.00
50384;BME280;36301;48.310;12.786;2022-11-12T09:30:45;97895.28;;;4.02;100.00
50384;BME280;36301;48.310;12.786;2022-11-12T09:33:22;97898.97;;;4.01;100.00
50384;BME280;36301;48.310;12.786;2022-11-12T09:35:50;97889.34;;;3.92;100.00
50384;BME280;36301;48.310;12.786;2022-11-12T09:38:17;97903.44;;;4.01;100.00
50384;BME280;36301;48.310;12.786;2022-11-12T09:43:40;97897.25;;;4.15;100.00
50384;BME280;36301;48.310;12.786;2022-11-12T09:46:24;97884.75;;;4.07;100.00
50384;BME280;36301;48.310;12.786;2022-11-12T09:51:48;97897.03;;;4.65;100.00
50384;BME280;36301;48.310;12.786;2022-11-12T09:54:26;97883.09;;;4.69;100.00
50384;BME280;36301;48.310;12.786;2022-11-12T09:56:53;97882.38;;;4.64;100.00
50384;BME280;36301;48.310;12.786;2022-11-12T09:59:21;97868.34;;;4.74;100.00
50384;BME280;36301;48.310;12.786;2022-11-12T10:01:55;97873.47;;;4.84;100.00
50384;BME280;36301;48.310;12.786;2022-11-12T10:18:09;97867.28;;;5.17;100.00
50384;BME280;36301;48.310;12.786;2022-11-12T10:21:03;97873.25;;;5.23;100.00
50384;BME280;36301;48.310;12.786;2022-11-12T10:23:42;97875.00;;;5.46;100.00
50384;BME280;36301;48.310;12.786;2022-11-12T10:26:13;97875.88;;;5.23;100.00
50384;BME280;36301;48.310;12.786;2022-11-12T10:28:51;97865.44;;;5.37;100.00
50384;BME280;36301;48.310;12.786;2022-11-12T10:31:21;97864.47;;;5.33;100.00
50384;BME280;36301;48.310;12.786;2022-11-12T10:33:47;97859.06;;;5.43;100.00
50384;BME280;36301;48.310;12.786;2022-11-12T10:38:52;97854.28;;;5.45;100.00
50384;BME280;36301;48.310;12.786;2022-11-12T10:43:59;97851.59;;;5.50;100.00
50384;BME280;36301;48.310;12.786;2022-11-12T10:51:53;97851.97;;;5.76;100.00
50384;BME280;36301;48.310;12.786;2022-11-12T10:54:28;97846.53;;;6.05;100.00
50384;BME280;36301;48.310;12.786;2022-11-12T10:56:54;97857.94;;;6.14;100.00
50384;BME280;36301;48.310;12.786;2022-11-12T10:59:22;97856.41;;;6.27;100.00
50384;BME280;36301;48.310;12.786;2022-11-12T11:01:57;97843.94;;;6.33;100.00
50384;BME280;36301;48.310;12.786;2022-11-12T11:04:33;97850.78;;;6.34;100.00
50384;BME280;36301;48.310;12.786;2022-11-12T11:07:44;97855.06;;;6.30;100.00
50384;BME280;36301;48.310;12.786;2022-11-12T11:09:58;97846.34;;;6.15;100.00
50384;BME280;36301;48.310;12.786;2022-11-12T11:12:28;97850.97;;;6.23;100.00
50384;BME280;36301;48.310;12.786;2022-11-12T11:15:27;97847.75;;;6.40;100.00
50384;BME280;36301;48.310;12.786;2022-11-12T11:17:54;97837.53;;;6.39;100.00
50384;BME280;36301;48.310;12.786;2022-11-12T11:20:34;97850.88;;;6.29;100.00
50384;BME280;36301;48.310;12.786;2022-11-12T11:23:13;97846.84;;;6.17;100.00
50384;BME280;36301;48.310;12.786;2022-11-12T11:25:43;97842.25;;;6.23;100.00
50384;BME280;36301;48.310;12.786;2022-11-12T11:28:32;97838.69;;;6.46;100.00
50384;BME280;36301;48.310;12.786;2022-11-12T11:36:24;97835.94;;;6.79;100.00
50384;BME280;36301;48.310;12.786;2022-11-12T11:39:00;97838.66;;;6.74;100.00
50384;BME280;36301;48.310;12.786;2022-11-12T11:44:24;97831.25;;;6.90;100.00
50384;BME280;36301;48.310;12.786;2022-11-12T11:47:01;97831.25;;;6.90;100.00
50384;BME280;36301;48.310;12.786;2022-11-12T11:55:41;97818.56;;;6.92;100.00
50384;BME280;36301;48.310;12.786;2022-11-12T12:06:28;97784.03;;;6.93;100.00
50384;BME280;36301;48.310;12.786;2022-11-12T12:11:50;97783.16;;;6.98;100.00
50384;BME280;36301;48.310;12.786;2022-11-12T12:25:21;97756.34;;;7.18;100.00
50384;BME280;36301;48.310;12.786;2022-11-12T12:30:41;97760.97;;;7.13;100.00
50384;BME280;36301;48.310;12.786;2022-11-12T12:33:31;97770.13;;;7.15;100.00
50384;BME280;36301;48.310;12.786;2022-11-12T12:36:09;97750.63;;;7.16;100.00
50384;BME280;36301;48.310;12.786;2022-11-12T12:38:43;97756.19;;;7.15;100.00
50384;BME280;36301;48.310;12.786;2022-11-12T12:41:13;97753.72;;;7.18;100.00
50384;BME280;36301;48.310;12.786;2022-11-12T12:43:49;97752.50;;;7.24;100.00
50384;BME280;36301;48.310;12.786;2022-11-12T12:46:21;97739.47;;;7.19;100.00
50384;BME280;36301;48.310;12.786;2022-11-12T12:48:49;97734.06;;;7.24;100.00
50384;BME280;36301;48.310;12.786;2022-11-12T12:51:18;97738.63;;;7.33;100.00
50384;BME280;36301;48.310;12.786;2022-11-12T12:53:45;97725.00;;;7.31;100.00
50384;BME280;36301;48.310;12.786;2022-11-12T13:01:26;97720.53;;;7.40;100.00
50384;BME280;36301;48.310;12.786;2022-11-12T13:17:11;97705.66;;;7.35;100.00
50384;BME280;36301;48.310;12.786;2022-11-12T13:25:22;97705.56;;;7.49;100.00
50384;BME280;36301;48.310;12.786;2022-11-12T13:43:23;97695.88;;;7.36;100.00
50384;BME280;36301;48.310;12.786;2022-11-12T13:51:28;97695.53;;;7.28;100.00
50384;BME280;36301;48.310;12.786;2022-11-12T13:53:55;97693.50;;;7.25;100.00
50384;BME280;36301;48.310;12.786;2022-11-12T13:56:33;97684.97;;;7.20;100.00
50384;BME280;36301;48.310;12.786;2022-11-12T13:59:29;97678.41;;;7.17;100.00
50384;BME280;36301;48.310;12.786;2022-11-12T14:02:03;97676.69;;;7.13;100.00
50384;BME280;36301;48.310;12.786;2022-11-12T14:04:31;97661.56;;;6.96;100.00
50384;BME280;36301;48.310;12.786;2022-11-12T14:07:10;97670.03;;;6.93;100.00
50384;BME280;36301;48.310;12.786;2022-11-12T14:22:40;97657.03;;;6.15;100.00
50384;BME280;36301;48.310;12.786;2022-11-12T14:25:26;97673.47;;;6.21;100.00
50384;BME280;36301;48.310;12.786;2022-11-12T14:27:54;97665.69;;;6.02;100.00
50384;BME280;36301;48.310;12.786;2022-11-12T14:30:23;97660.75;;;6.01;100.00
50384;BME280;36301;48.310;12.786;2022-11-12T14:32:57;97656.72;;;5.89;100.00
50384;BME280;36301;48.310;12.786;2022-11-12T14:40:24;97656.81;;;5.70;100.00
50384;BME280;36301;48.310;12.786;2022-11-12T14:42:51;97644.66;;;5.61;100.00
50384;BME280;36301;48.310;12.786;2022-11-12T14:45:20;97648.56;;;5.63;100.00
50384;BME280;36301;48.310;12.786;2022-11-12T14:47:49;97653.41;;;5.56;100.00
50384;BME280;36301;48.310;12.786;2022-11-12T14:50:27;97644.06;;;5.50;100.00
50384;BME280;36301;48.310;12.786;2022-11-12T14:53:01;97653.78;;;5.36;100.00
50384;BME280;36301;48.310;12.786;2022-11-12T14:55:33;97647.84;;;5.30;100.00
50384;BME280;36301;48.310;12.786;2022-11-12T14:58:01;97639.94;;;5.30;100.00
50384;BME280;36301;48.310;12.786;2022-11-12T15:02:56;97653.38;;;5.29;100.00
50384;BME280;36301;48.310;12.786;2022-11-12T15:05:25;97649.47;;;5.26;100.00
50384;BME280;36301;48.310;12.786;2022-11-12T15:08:09;97641.59;;;5.12;100.00
50384;BME280;36301;48.310;12.786;2022-11-12T15:10:37;97644.88;;;5.04;100.00
50384;BME280;36301;48.310;12.786;2022-11-12T15:13:08;97645.81;;;4.94;100.00
50384;BME280;36301;48.310;12.786;2022-11-12T15:15:38;97641.19;;;4.86;100.00
50384;BME280;36301;48.310;12.786;2022-11-12T15:18:18;97645.09;;;4.89;100.00
50384;BME280;36301;48.310;12.786;2022-11-12T15:21:23;97642.56;;;4.84;100.00
50384;BME280;36301;48.310;12.786;2022-11-12T15:23:49;97638.81;;;4.71;100.00
50384;BME280;36301;48.310;12.786;2022-11-12T15:26:44;97646.84;;;4.61;100.00
50384;BME280;36301;48.310;12.786;2022-11-12T15:29:42;97637.63;;;4.63;100.00
50384;BME280;36301;48.310;12.786;2022-11-12T15:39:39;97628.59;;;4.37;100.00
50384;BME280;36301;48.310;12.786;2022-11-12T15:42:24;97634.28;;;4.20;100.00
50384;BME280;36301;48.310;12.786;2022-11-12T15:44:56;97616.38;;;4.08;100.00
50384;BME280;36301;48.310;12.786;2022-11-12T15:47:23;97629.47;;;4.08;100.00
50384;BME280;36301;48.310;12.786;2022-11-12T15:49:51;97630.31;;;4.04;100.00
50384;BME280;36301;48.310;12.786;2022-11-12T15:52:18;97639.03;;;3.99;100.00
50384;BME280;36301;48.310;12.786;2022-11-12T15:54:45;97636.28;;;3.90;100.00
50384;BME280;36301;48.310;12.786;2022-11-12T15:57:17;97630.03;;;3.86;100.00
50384;BME280;36301;48.310;12.786;2022-11-12T15:59:50;97630.50;;;3.88;100.00
50384;BME280;36301;48.310;12.786;2022-11-12T16:02:19;97626.34;;;3.87;100.00
50384;BME280;36301;48.310;12.786;2022-11-12T16:04:46;97638.88;;;3.90;100.00
50384;BME280;36301;48.310;12.786;2022-11-12T16:07:12;97621.59;;;3.89;100.00
50384;BME280;36301;48.310;12.786;2022-11-12T16:09:39;97623.22;;;3.85;100.00
50384;BME280;36301;48.310;12.786;2022-11-12T16:12:10;97606.06;;;3.74;100.00
50384;BME280;36301;48.310;12.786;2022-11-12T16:14:38;97615.16;;;3.82;100.00
50384;BME280;36301;48.310;12.786;2022-11-12T16:17:10;97621.72;;;3.79;100.00
50384;BME280;36301;48.310;12.786;2022-11-12T16:19:38;97614.19;;;3.73;100.00
50384;BME280;36301;48.310;12.786;2022-11-12T16:22:04;97614.13;;;3.78;100.00
50384;BME280;36301;48.310;12.786;2022-11-12T16:24:41;97607.97;;;3.69;100.00
50384;BME280;36301;48.310;12.786;2022-11-12T16:27:14;97622.53;;;3.75;100.00
50384;BME280;36301;48.310;12.786;2022-11-12T16:29:41;97633.31;;;3.73;100.00
50384;BME280;36301;48.310;12.786;2022-11-12T16:32:13;97614.88;;;3.59;100.00
50384;BME280;36301;48.310;12.786;2022-11-12T16:34:39;97633.59;;;3.72;100.00
50384;BME280;36301;48.310;12.786;2022-11-12T16:37:09;97624.06;;;3.57;100.00
50384;BME280;36301;48.310;12.786;2022-11-12T16:39:37;97632.94;;;3.61;100.00
50384;BME280;36301;48.310;12.786;2022-11-12T16:42:04;97634.16;;;3.69;100.00
50384;BME280;36301;48.310;12.786;2022-11-12T16:44:30;97634.38;;;3.72;100.00
50384;BME280;36301;48.310;12.786;2022-11-12T16:46:57;97625.03;;;3.66;100.00
50384;BME280;36301;48.310;12.786;2022-11-12T16:49:23;97629.44;;;3.71;100.00
50384;BME280;36301;48.310;12.786;2022-11-12T16:51:51;97635.66;;;3.75;100.00
50384;BME280;36301;48.310;12.786;2022-11-12T16:54:17;97627.34;;;3.68;100.00
50384;BME280;36301;48.310;12.786;2022-11-12T16:56:44;97623.00;;;3.58;100.00
50384;BME280;36301;48.310;12.786;2022-11-12T16:59:11;97608.19;;;3.48;100.00
50384;BME280;36301;48.310;12.786;2022-11-12T17:01:39;97616.75;;;3.54;100.00
50384;BME280;36301;48.310;12.786;2022-11-12T17:04:06;97618.06;;;3.56;100.00
50384;BME280;36301;48.310;12.786;2022-11-12T17:06:37;97616.75;;;3.54;100.00
50384;BME280;36301;48.310;12.786;2022-11-12T17:09:06;97616.22;;;3.57;100.00
50384;BME280;36301;48.310;12.786;2022-11-12T17:11:34;97611.38;;;3.45;100.00
50384;BME280;36301;48.310;12.786;2022-11-12T17:14:01;97610.88;;;3.43;100.00
50384;BME280;36301;48.310;12.786;2022-11-12T17:16:29;97607.19;;;3.44;100.00
50384;BME280;36301;48.310;12.786;2022-11-12T17:18:57;97606.09;;;3.50;100.00
50384;BME280;36301;48.310;12.786;2022-11-12T17:21:24;97597.47;;;3.45;100.00
50384;BME280;36301;48.310;12.786;2022-11-12T17:23:50;97605.84;;;3.47;100.00
50384;BME280;36301;48.310;12.786;2022-11-12T17:26:18;97604.34;;;3.41;100.00
50384;BME280;36301;48.310;12.786;2022-11-12T17:28:46;97595.44;;;3.42;100.00
50384;BME280;36301;48.310;12.786;2022-11-12T17:31:17;97595.84;;;3.30;100.00
50384;BME280;36301;48.310;12.786;2022-11-12T17:33:49;97598.50;;;3.25;100.00
50384;BME280;36301;48.310;12.786;2022-11-12T17:36:18;97591.78;;;3.13;100.00
50384;BME280;36301;48.310;12.786;2022-11-12T17:38:45;97591.34;;;3.06;100.00
50384;BME280;36301;48.310;12.786;2022-11-12T17:41:12;97588.78;;;3.01;100.00
50384;BME280;36301;48.310;12.786;2022-11-12T17:43:39;97585.66;;;2.99;100.00
50384;BME280;36301;48.310;12.786;2022-11-12T17:46:07;97589.66;;;2.92;100.00
50384;BME280;36301;48.310;12.786;2022-11-12T17:48:35;97575.31;;;2.89;100.00
50384;BME280;36301;48.310;12.786;2022-11-12T17:53:35;97576.91;;;2.85;100.00
50384;BME280;36301;48.310;12.786;2022-11-12T17:56:02;97575.84;;;2.86;100.00
50384;BME280;36301;48.310;12.786;2022-11-12T17:58:29;97562.84;;;2.76;100.00
50384;BME280;36301;48.310;12.786;2022-11-12T18:01:03;97573.22;;;2.86;100.00
50384;BME280;36301;48.310;12.786;2022-11-12T18:03:30;97570.94;;;2.79;100.00
50384;BME280;36301;48.310;12.786;2022-11-12T18:05:58;97566.50;;;2.80;100.00
50384;BME280;36301;48.310;12.786;2022-11-12T18:08:25;97568.50;;;2.88;100.00
50384;BME280;36301;48.310;12.786;2022-11-12T18:10:51;97570.66;;;2.81;100.00
50384;BME280;36301;48.310;12.786;2022-11-12T18:13:18;97573.81;;;2.78;100.00
50384;BME280;36301;48.310;12.786;2022-11-12T18:15:44;97560.09;;;2.62;100.00
50384;BME280;36301;48.310;12.786;2022-11-12T18:18:11;97562.66;;;2.67;100.00
50384;BME280;36301;48.310;12.786;2022-11-12T18:20:38;97570.75;;;2.71;100.00
50384;BME280;36301;48.310;12.786;2022-11-12T18:23:05;97554.59;;;2.64;100.00
50384;BME280;36301;48.310;12.786;2022-11-12T18:25:34;97554.31;;;2.65;100.00
50384;BME280;36301;48.310;12.786;2022-11-12T18:28:01;97565.88;;;2.59;100.00
50384;BME280;36301;48.310;12.786;2022-11-12T18:30:28;97558.25;;;2.33;100.00
50384;BME280;36301;48.310;12.786;2022-11-12T18:32:54;97564.59;;;2.17;100.00
50384;BME280;36301;48.310;12.786;2022-11-12T18:35:21;97566.22;;;2.13;100.00
50384;BME280;36301;48.310;12.786;2022-11-12T18:37:53;97562.78;;;2.13;100.00
50384;BME280;36301;48.310;12.786;2022-11-12T18:40:20;97554.53;;;2.00;100.00
50384;BME280;36301;48.310;12.786;2022-11-12T18:42:47;97570.38;;;2.14;100.00
50384;BME280;36301;48.310;12.786;2022-11-12T18:45:14;97565.38;;;2.18;100.00
50384;BME280;36301;48.310;12.786;2022-11-12T18:47:40;97571.38;;;2.23;100.00
50384;BME280;36301;48.310;12.786;2022-11-12T18:50:07;97562.19;;;2.26;100.00
50384;BME280;36301;48.310;12.786;2022-11-12T18:52:34;97554.84;;;2.28;100.00
50384;BME280;36301;48.310;12.786;2022-11-12T18:55:01;97558.78;;;2.30;100.00
50384;BME280;36301;48.310;12.786;2022-11-12T18:57:29;97559.00;;;2.34;100.00
50384;BME280;36301;48.310;12.786;2022-11-12T18:59:55;97548.38;;;2.20;100.00
50384;BME280;36301;48.310;12.786;2022-11-12T19:02:22;97541.56;;;2.24;100.00
50384;BME280;36301;48.310;12.786;2022-11-12T19:04:48;97539.78;;;2.20;100.00
50384;BME280;36301;48.310;12.786;2022-11-12T19:07:15;97540.34;;;2.12;100.00
50384;BME280;36301;48.310;12.786;2022-11-12T19:09:41;97540.06;;;2.18;100.00
50384;BME280;36301;48.310;12.786;2022-11-12T19:12:08;97544.50;;;2.13;100.00
50384;BME280;36301;48.310;12.786;2022-11-12T19:14:34;97546.16;;;2.03;100.00
50384;BME280;36301;48.310;12.786;2022-11-12T19:17:01;97548.22;;;2.06;100.00
50384;BME280;36301;48.310;12.786;2022-11-12T19:19:27;97529.47;;;1.99;100.00
50384;BME280;36301;48.310;12.786;2022-11-12T19:21:54;97545.06;;;2.10;100.00
50384;BME280;36301;48.310;12.786;2022-11-12T19:24:20;97541.94;;;2.07;100.00
50384;BME280;36301;48.310;12.786;2022-11-12T19:26:47;97546.88;;;2.14;100.00
50384;BME280;36301;48.310;12.786;2022-11-12T19:29:14;97528.78;;;2.18;100.00
50384;BME280;36301;48.310;12.786;2022-11-12T19:31:40;97529.94;;;2.06;100.00
50384;BME280;36301;48.310;12.786;2022-11-12T19:34:07;97534.66;;;2.04;100.00
50384;BME280;36301;48.310;12.786;2022-11-12T19:36:33;97534.16;;;1.97;100.00